Map

Track Data

SID SEASON NUMBER BASIN SUBBASIN NAME ISO_TIME NATURE LAT LON WMO_WIND WMO_PRES WMO_AGENCY TRACK_TYPE DIST2LAND LANDFALL IFLAG USA_AGENCY USA_ATCF_ID USA_LAT USA_LON USA_RECORD USA_STATUS USA_WIND USA_PRES USA_SSHS USA_R34_NE USA_R34_SE USA_R34_SW USA_R34_NW USA_R50_NE USA_R50_SE USA_R50_SW USA_R50_NW USA_R64_NE USA_R64_SE USA_R64_SW USA_R64_NW USA_POCI USA_ROCI USA_RMW USA_EYE TOKYO_LAT TOKYO_LON TOKYO_GRADE TOKYO_WIND TOKYO_PRES TOKYO_R50_DIR TOKYO_R50_LONG TOKYO_R50_SHORT TOKYO_R30_DIR TOKYO_R30_LONG TOKYO_R30_SHORT TOKYO_LAND CMA_LAT CMA_LON CMA_CAT CMA_WIND CMA_PRES HKO_LAT HKO_LON HKO_CAT HKO_WIND HKO_PRES NEWDELHI_LAT NEWDELHI_LON NEWDELHI_GRADE NEWDELHI_WIND NEWDELHI_PRES NEWDELHI_CI NEWDELHI_DP NEWDELHI_POCI REUNION_LAT REUNION_LON REUNION_TYPE REUNION_WIND REUNION_PRES REUNION_TNUM REUNION_CI REUNION_RMW REUNION_R34_NE REUNION_R34_SE REUNION_R34_SW REUNION_R34_NW REUNION_R50_NE REUNION_R50_SE REUNION_R50_SW REUNION_R50_NW REUNION_R64_NE REUNION_R64_SE REUNION_R64_SW REUNION_R64_NW BOM_LAT BOM_LON BOM_TYPE BOM_WIND BOM_PRES BOM_TNUM BOM_CI BOM_RMW BOM_R34_NE BOM_R34_SE BOM_R34_SW BOM_R34_NW BOM_R50_NE BOM_R50_SE BOM_R50_SW BOM_R50_NW BOM_R64_NE BOM_R64_SE BOM_R64_SW BOM_R64_NW BOM_ROCI BOM_POCI BOM_EYE BOM_POS_METHOD BOM_PRES_METHOD NADI_LAT NADI_LON NADI_CAT NADI_WIND NADI_PRES WELLINGTON_LAT WELLINGTON_LON WELLINGTON_WIND WELLINGTON_PRES DS824_LAT DS824_LON DS824_STAGE DS824_WIND DS824_PRES TD9636_LAT TD9636_LON TD9636_STAGE TD9636_WIND TD9636_PRES TD9635_LAT TD9635_LON TD9635_WIND TD9635_PRES TD9635_ROCI NEUMANN_LAT NEUMANN_LON NEUMANN_CLASS NEUMANN_WIND NEUMANN_PRES MLC_LAT MLC_LON MLC_CLASS MLC_WIND MLC_PRES USA_GUST BOM_GUST BOM_GUST_PER REUNION_GUST REUNION_GUST_PER USA_SEAHGT USA_SEARAD_NE USA_SEARAD_SE USA_SEARAD_SW USA_SEARAD_NW STORM_SPEED STORM_DIR
1984253N29283 1984 77 NA NA DIANA 1984-09-08 12:00:00 TS 28.5000 -77.4000 35 1008 hurdat_atl main 302 263 O_____________ hurdat_atl AL101984 28.5000 -77.4000 TS 35 1008 0 8 281
1984253N29283 1984 77 NA NA DIANA 1984-09-08 15:00:00 TS 28.5751 -77.8397 main 263 214 P_____________ AL101984 28.5751 -77.8397 TS 37 1007 0 8 277
1984253N29283 1984 77 NA NA DIANA 1984-09-08 18:00:00 TS 28.6000 -78.3000 40 1006 hurdat_atl main 214 166 O_____________ hurdat_atl AL101984 28.6000 -78.3000 TS 40 1006 0 8 268
1984253N29283 1984 77 NA NA DIANA 1984-09-08 21:00:00 TS 28.5501 -78.7803 main 166 126 P_____________ AL101984 28.5501 -78.7803 TS 42 1005 0 8 263
1984253N29283 1984 77 NA NA DIANA 1984-09-09 00:00:00 TS 28.5000 -79.2000 45 1004 hurdat_atl main 126 97 O_____________ hurdat_atl AL101984 28.5000 -79.2000 TS 45 1004 0 6 267
1984253N29283 1984 77 NA NA DIANA 1984-09-09 03:00:00 TS 28.5123 -79.5024 main 97 78 P_____________ AL101984 28.5123 -79.5024 TS 47 1003 0 5 283
1984253N29283 1984 77 NA NA DIANA 1984-09-09 06:00:00 TS 28.6000 -79.7000 50 1002 hurdat_atl main 78 71 O_____________ hurdat_atl AL101984 28.6000 -79.7000 TS 50 1002 0 4 313
1984253N29283 1984 77 NA NA DIANA 1984-09-09 09:00:00 TS 28.7774 -79.8225 main 76 67 P_____________ AL101984 28.7774 -79.8225 TS 52 1001 0 4 336
1984253N29283 1984 77 NA NA DIANA 1984-09-09 12:00:00 TS 29.0000 -79.9000 55 1000 hurdat_atl main 80 80 O_____________ hurdat_atl AL101984 29.0000 -79.9000 TS 55 1000 0 5 341
1984253N29283 1984 77 NA NA DIANA 1984-09-09 15:00:00 TS 29.2075 -79.9926 main 84 80 P_____________ AL101984 29.2075 -79.9926 TS 57 997 0 4 337
1984253N29283 1984 77 NA NA DIANA 1984-09-09 18:00:00 TS 29.4000 -80.1000 60 995 hurdat_atl main 84 73 O_____________ hurdat_atl AL101984 29.4000 -80.1000 TS 60 995 0 4 325
1984253N29283 1984 77 NA NA DIANA 1984-09-09 21:00:00 TS 29.5501 -80.2724 main 80 71 P_____________ AL101984 29.5501 -80.2724 TS 60 994 0 4 319
1984253N29283 1984 77 NA NA DIANA 1984-09-10 00:00:00 TS 29.7000 -80.4000 60 994 hurdat_atl main 75 75 O_____________ hurdat_atl AL101984 29.7000 -80.4000 TS 60 994 0 4 343
1984253N29283 1984 77 NA NA DIANA 1984-09-10 03:00:00 TS 29.8925 -80.3951 main 84 84 P_____________ AL101984 29.8925 -80.3951 TS 60 994 0 4 12
1984253N29283 1984 77 NA NA DIANA 1984-09-10 06:00:00 TS 30.1000 -80.3000 60 995 hurdat_atl main 101 101 O_____________ hurdat_atl AL101984 30.1000 -80.3000 TS 60 995 0 5 25
1984253N29283 1984 77 NA NA DIANA 1984-09-10 09:00:00 TS 30.3075 -80.1725 main 117 117 P_____________ AL101984 30.3075 -80.1725 TS 62 993 0 5 33
1984253N29283 1984 77 NA NA DIANA 1984-09-10 12:00:00 TS 30.5000 -80.0000 65 991 hurdat_atl main 135 135 O_____________ hurdat_atl AL101984 30.5000 -80.0000 HU 65 991 1 5 43
1984253N29283 1984 77 NA NA DIANA 1984-09-10 15:00:00 TS 30.6425 -79.8148 main 153 152 P_____________ AL101984 30.6425 -79.8148 HU 67 988 1 5 49
1984253N29283 1984 77 NA NA DIANA 1984-09-10 18:00:00 TS 30.8000 -79.6000 70 986 hurdat_atl main 171 171 O_____________ hurdat_atl AL101984 30.8000 -79.6000 HU 70 986 1 6 45
1984253N29283 1984 77 NA NA DIANA 1984-09-10 21:00:00 TS 31.0350 -79.3501 main 173 167 P_____________ AL101984 31.0350 -79.3501 HU 75 983 1 7 41
1984253N29283 1984 77 NA NA DIANA 1984-09-11 00:00:00 TS 31.3000 -79.1000 80 980 hurdat_atl main 167 154 O_____________ hurdat_atl AL101984 31.3000 -79.1000 HU 80 980 1 6 39
1984253N29283 1984 77 NA NA DIANA 1984-09-11 03:00:00 TS 31.5275 -78.8848 main 160 149 P_____________ AL101984 31.5275 -78.8848 HU 82 976 1 6 34
1984253N29283 1984 77 NA NA DIANA 1984-09-11 06:00:00 TS 31.8000 -78.7000 85 973 hurdat_atl main 149 116 O_____________ hurdat_atl AL101984 31.8000 -78.7000 HU 85 973 2 7 24
1984253N29283 1984 77 NA NA DIANA 1984-09-11 09:00:00 TS 32.1774 -78.5498 main 122 100 P_____________ AL101984 32.1774 -78.5498 HU 92 966 2 8 18
1984253N29283 1984 77 NA NA DIANA 1984-09-11 12:00:00 TS 32.6000 -78.4000 100 960 hurdat_atl main 100 90 O_____________ hurdat_atl AL101984 32.6000 -78.4000 HU 100 960 3 9 19
1984253N29283 1984 77 NA NA DIANA 1984-09-11 15:00:00 TS 33.0225 -78.2002 main 95 55 P_____________ AL101984 33.0225 -78.2002 HU 105 956 3 9 23
1984253N29283 1984 77 NA NA DIANA 1984-09-11 18:00:00 TS 33.4000 -78.0000 110 952 hurdat_atl main 55 24 O_____________ hurdat_atl AL101984 33.4000 -78.0000 HU 110 952 3 7 24
1984253N29283 1984 77 NA NA DIANA 1984-09-11 21:00:00 TS 33.7024 -77.8424 main 28 21 P_____________ AL101984 33.7024 -77.8424 HU 112 950 3 6 27
1984253N29283 1984 77 NA NA DIANA 1984-09-12 00:00:00 TS 33.9000 -77.7000 115 949 hurdat_atl main 27 27 O_____________ hurdat_atl AL101984 33.9000 -77.7000 HU 115 949 4 4 41
1984253N29283 1984 77 NA NA DIANA 1984-09-12 03:00:00 TS 33.9875 -77.5424 main 35 35 P_____________ AL101984 33.9875 -77.5424 HU 105 956 3 3 68
1984253N29283 1984 77 NA NA DIANA 1984-09-12 06:00:00 TS 34.0000 -77.4000 95 963 hurdat_atl main 42 42 O_____________ hurdat_atl AL101984 34.0000 -77.4000 HU 95 963 2 2 83
1984253N29283 1984 77 NA NA DIANA 1984-09-12 09:00:00 TS 34.0150 -77.2850 main 49 49 P_____________ AL101984 34.0150 -77.2850 HU 95 965 2 2 90
1984253N29283 1984 77 NA NA DIANA 1984-09-12 12:00:00 TS 34.0000 -77.2000 95 967 hurdat_atl main 56 56 O_____________ hurdat_atl AL101984 34.0000 -77.2000 HU 95 967 2 2 112
1984253N29283 1984 77 NA NA DIANA 1984-09-12 15:00:00 TS 33.9575 -77.1124 main 62 62 P_____________ AL101984 33.9575 -77.1124 HU 92 968 2 1 143
1984253N29283 1984 77 NA NA DIANA 1984-09-12 18:00:00 TS 33.9000 -77.1000 90 970 hurdat_atl main 70 64 O_____________ hurdat_atl AL101984 33.9000 -77.1000 HU 90 970 2 1 214
1984253N29283 1984 77 NA NA DIANA 1984-09-12 21:00:00 TS 33.8350 -77.2051 main 70 56 P_____________ AL101984 33.8350 -77.2051 HU 87 971 2 3 248
1984253N29283 1984 77 NA NA DIANA 1984-09-13 00:00:00 TS 33.8000 -77.4000 85 972 hurdat_atl main 56 38 O_____________ hurdat_atl AL101984 33.8000 -77.4000 HU 85 972 2 3 273
1984253N29283 1984 77 NA NA DIANA 1984-09-13 03:00:00 TS 33.8515 -77.6244 main 35 9 P_____________ AL101984 33.8515 -77.6244 HU 82 975 1 4 284
1984253N29283 1984 77 NA NA DIANA 1984-09-13 06:00:00 TS 33.9000 -77.9000 80 978 hurdat_atl main 9 0 O_____________ hurdat_atl AL101984 33.9000 -77.9000 HU 80 978 1 5 279
1984253N29283 1984 77 NA NA DIANA 1984-09-13 07:00:00 TS 33.9000 -78.0000 80 979 hurdat_atl main 0 0 O_____________ hurdat_atl AL101984 33.9000 -78.0000 L HU 80 979 1 4 275
1984253N29283 1984 77 NA NA DIANA 1984-09-13 09:00:00 TS 33.9192 -78.1542 main 0 0 P_____________ AL101984 33.9192 -78.1542 HU 73 983 1 3 292
1984253N29283 1984 77 NA NA DIANA 1984-09-13 12:00:00 TS 34.0000 -78.3000 65 990 hurdat_atl main 0 0 O_____________ hurdat_atl AL101984 34.0000 -78.3000 HU 65 990 1 3 313
1984253N29283 1984 77 NA NA DIANA 1984-09-13 15:00:00 TS 34.1352 -78.4277 main 0 0 P_____________ AL101984 34.1352 -78.4277 HU 60 994 0 3 331
1984253N29283 1984 77 NA NA DIANA 1984-09-13 18:00:00 TS 34.3000 -78.5000 55 999 hurdat_atl main 0 0 O_____________ hurdat_atl AL101984 34.3000 -78.5000 TS 55 999 0 3 342
1984253N29283 1984 77 NA NA DIANA 1984-09-13 21:00:00 TS 34.4424 -78.5523 main 0 0 P_____________ AL101984 34.4424 -78.5523 TS 50 1001 0 3 0
1984253N29283 1984 77 NA NA DIANA 1984-09-14 00:00:00 TS 34.6000 -78.5000 45 1003 hurdat_atl main 0 0 O_____________ hurdat_atl AL101984 34.6000 -78.5000 TS 45 1003 0 4 29
1984253N29283 1984 77 NA NA DIANA 1984-09-14 03:00:00 TS 34.7999 -78.3176 main 0 0 P_____________ AL101984 34.7999 -78.3176 TS 42 1004 0 6 46
1984253N29283 1984 77 NA NA DIANA 1984-09-14 06:00:00 TS 35.0000 -78.0000 40 1005 hurdat_atl main 0 0 O_____________ hurdat_atl AL101984 35.0000 -78.0000 TS 40 1005 0 7 59
1984253N29283 1984 77 NA NA DIANA 1984-09-14 09:00:00 TS 35.1574 -77.5948 main 0 0 P_____________ AL101984 35.1574 -77.5948 TS 42 1004 0 8 68
1984253N29283 1984 77 NA NA DIANA 1984-09-14 12:00:00 TS 35.3000 -77.1000 45 1003 hurdat_atl main 0 0 O_____________ hurdat_atl AL101984 35.3000 -77.1000 TS 45 1003 0 9 72
1984253N29283 1984 77 NA NA DIANA 1984-09-14 15:00:00 TS 35.4269 -76.6015 main 0 0 P_____________ AL101984 35.4269 -76.6015 TS 47 1001 0 9 71
1984253N29283 1984 77 NA NA DIANA 1984-09-14 18:00:00 TS 35.6000 -76.0000 50 1000 hurdat_atl main 0 0 O_____________ hurdat_atl AL101984 35.6000 -76.0000 TS 50 1000 0 12 69
1984253N29283 1984 77 NA NA DIANA 1984-09-14 21:00:00 TS 35.8475 -75.2442 main 26 26 P_____________ AL101984 35.8475 -75.2442 TS 52 998 0 14 65
1984253N29283 1984 77 NA NA DIANA 1984-09-15 00:00:00 TS 36.2000 -74.4000 55 997 hurdat_atl main 108 108 O_____________ hurdat_atl AL101984 36.2000 -74.4000 TS 55 997 0 15 59
1984253N29283 1984 77 NA NA DIANA 1984-09-15 03:00:00 TS 36.6458 -73.6078 main 190 190 P_____________ AL101984 36.6458 -73.6078 TS 57 995 0 17 54
1984253N29283 1984 77 NA NA DIANA 1984-09-15 06:00:00 TS 37.2000 -72.7000 60 994 hurdat_atl main 243 243 O_____________ hurdat_atl AL101984 37.2000 -72.7000 TS 60 994 0 19 55
1984253N29283 1984 77 NA NA DIANA 1984-09-15 09:00:00 TS 37.7326 -71.6834 main 301 300 P_____________ AL101984 37.7326 -71.6834 TS 60 993 0 23 56
1984253N29283 1984 77 NA NA DIANA 1984-09-15 12:00:00 TS 38.5000 -70.3000 60 992 hurdat_atl main 322 269 O_____________ hurdat_atl AL101984 38.5000 -70.3000 TS 60 992 0 33 54
1984253N29283 1984 77 NA NA DIANA 1984-09-15 15:00:00 TS 39.6641 -68.2829 main 264 264 P_____________ AL101984 39.6641 -68.2829 TS 60 992 0 41 53
1984253N29283 1984 77 NA NA DIANA 1984-09-15 18:00:00 TS 41.0000 -66.0000 60 992 hurdat_atl main 279 179 O_____________ hurdat_atl AL101984 41.0000 -66.0000 TS 60 992 0 42 52
1984253N29283 1984 77 NA NA DIANA 1984-09-15 21:00:00 TS 42.2455 -63.9263 main 183 154 P_____________ AL101984 42.2455 -63.9263 TS 60 993 0 39 51
1984253N29283 1984 77 NA NA DIANA 1984-09-16 00:00:00 TS 43.5000 -61.9000 60 994 hurdat_atl main 151 99 O_____________ hurdat_atl AL101984 43.5000 -61.9000 TS 60 994 0 39 49
1984253N29283 1984 77 NA NA DIANA 1984-09-16 03:00:00 TS 44.7575 -59.8736 main 97 96 P_____________ AL101984 44.7575 -59.8736 TS 60 994 0 38 49
1984253N29283 1984 77 NA NA DIANA 1984-09-16 06:00:00 ET 46.0000 -57.8000 60 995 hurdat_atl main 155 O_____________ hurdat_atl AL101984 46.0000 -57.8000 EX 60 995 -4 38 49

About IBTrACS Database

This database is a web-friendly format of International Best Track Archive for Climate Stewardship (IBTrACS), a global best track data archive curated by NOAA dating back to 1842.

Updated: 2021-10-19